createdAt,value
2022-12-18T00:01:39.738Z,-5.45
2022-12-18T00:04:09.970Z,-5.39
2022-12-18T00:06:38.265Z,-5.29
2022-12-18T00:09:07.690Z,-5.29
2022-12-18T00:11:36.613Z,-5.38
2022-12-18T00:14:04.882Z,-5.34
2022-12-18T00:16:34.097Z,-5.48
2022-12-18T00:19:03.090Z,-5.55
2022-12-18T00:21:32.631Z,-5.63
2022-12-18T00:24:01.906Z,-5.58
2022-12-18T00:26:33.508Z,-5.60
2022-12-18T00:29:06.411Z,-5.59
2022-12-18T00:31:35.830Z,-5.59
2022-12-18T00:34:04.769Z,-5.60
2022-12-18T00:36:36.370Z,-5.55
2022-12-18T00:39:07.085Z,-5.41
2022-12-18T00:41:54.278Z,-5.51
2022-12-18T00:44:22.352Z,-5.53
2022-12-18T00:46:50.576Z,-5.49
2022-12-18T00:49:22.666Z,-5.46
2022-12-18T00:51:51.478Z,-5.44
2022-12-18T00:54:20.059Z,-5.50
2022-12-18T00:56:50.110Z,-5.46
2022-12-18T00:59:20.057Z,-5.40
2022-12-18T01:01:48.847Z,-5.52
2022-12-18T01:04:17.313Z,-5.43
2022-12-18T01:06:47.163Z,-5.42
2022-12-18T01:09:15.398Z,-5.38
2022-12-18T01:11:43.799Z,-5.38
2022-12-18T01:14:14.073Z,-5.50
2022-12-18T01:16:42.272Z,-5.44
2022-12-18T01:19:11.420Z,-5.21
2022-12-18T01:21:39.471Z,-5.28
2022-12-18T01:24:08.047Z,-5.34
2022-12-18T01:26:36.179Z,-5.31
2022-12-18T01:29:04.971Z,-5.36
2022-12-18T01:31:35.872Z,-5.33
2022-12-18T01:34:06.448Z,-5.22
2022-12-18T01:36:39.906Z,-5.19
2022-12-18T01:39:10.374Z,-5.20
2022-12-18T01:41:52.709Z,-5.29
2022-12-18T01:45:03.408Z,-5.24
2022-12-18T01:47:38.704Z,-5.29
2022-12-18T01:50:10.355Z,-5.24
2022-12-18T01:52:39.692Z,-5.30
2022-12-18T01:55:09.239Z,-5.30
2022-12-18T01:57:38.279Z,-5.19
2022-12-18T02:00:10.377Z,-5.17
2022-12-18T02:02:43.687Z,-5.14
2022-12-18T02:05:13.858Z,-5.18
2022-12-18T02:07:51.815Z,-5.11
2022-12-18T02:10:29.001Z,-5.18
2022-12-18T02:13:04.297Z,-4.91
2022-12-18T02:15:41.316Z,-4.96
2022-12-18T02:18:15.243Z,-4.88
2022-12-18T02:20:48.992Z,-5.06
2022-12-18T02:23:36.006Z,-4.92
2022-12-18T02:26:16.431Z,-5.04
2022-12-18T02:28:48.997Z,-5.03
2022-12-18T02:31:24.297Z,-5.01
2022-12-18T02:33:58.053Z,-4.91
2022-12-18T02:36:28.497Z,-4.99
2022-12-18T02:39:00.687Z,-5.00
2022-12-18T02:41:31.654Z,-5.01
2022-12-18T02:44:02.588Z,-4.99
2022-12-18T02:46:35.807Z,-4.92
2022-12-18T02:49:21.372Z,-4.99
2022-12-18T02:51:55.644Z,-4.95
2022-12-18T02:54:44.751Z,-4.99
2022-12-18T02:57:21.673Z,-5.03
2022-12-18T02:59:58.689Z,-5.13
2022-12-18T03:02:32.808Z,-4.95
2022-12-18T03:05:03.231Z,-4.88
2022-12-18T03:07:39.008Z,-4.81
2022-12-18T03:10:14.298Z,-5.08
2022-12-18T03:12:48.905Z,-4.97
2022-12-18T03:15:21.313Z,-5.07
2022-12-18T03:17:59.819Z,-5.01
2022-12-18T03:20:33.054Z,-5.04
2022-12-18T03:23:06.348Z,-4.97
2022-12-18T03:25:35.523Z,-4.83
2022-12-18T03:28:09.500Z,-4.93
2022-12-18T03:30:40.091Z,-4.93
2022-12-18T03:33:12.975Z,-4.94
2022-12-18T03:35:46.270Z,-4.87
2022-12-18T03:38:15.713Z,-4.87
2022-12-18T03:40:58.382Z,-4.79
2022-12-18T03:43:41.842Z,-4.87
2022-12-18T03:46:18.357Z,-4.83
2022-12-18T03:48:50.422Z,-4.83
2022-12-18T03:51:27.170Z,-4.76
2022-12-18T03:54:00.450Z,-4.78
2022-12-18T03:56:37.691Z,-4.68
2022-12-18T03:59:11.154Z,-4.82
2022-12-18T04:01:44.958Z,-4.80
2022-12-18T04:04:17.005Z,-4.80
2022-12-18T04:06:49.016Z,-4.85
2022-12-18T04:09:21.342Z,-4.80
2022-12-18T04:11:50.172Z,-4.86
2022-12-18T04:14:19.946Z,-4.75
2022-12-18T04:16:52.619Z,-4.68
2022-12-18T04:19:25.163Z,-4.62
2022-12-18T04:21:54.780Z,-4.82
2022-12-18T04:24:23.047Z,-4.79
2022-12-18T04:27:07.232Z,-4.90
2022-12-18T04:29:43.046Z,-5.04
2022-12-18T04:32:12.096Z,-5.02
2022-12-18T04:34:41.478Z,-5.03
2022-12-18T04:37:09.776Z,-5.08
2022-12-18T04:39:37.985Z,-5.02
2022-12-18T04:42:11.675Z,-5.04
2022-12-18T04:44:39.723Z,-5.01
2022-12-18T04:47:09.559Z,-4.96
2022-12-18T04:49:37.600Z,-5.06
2022-12-18T04:52:05.939Z,-5.04
2022-12-18T04:54:34.000Z,-5.18
2022-12-18T04:57:02.056Z,-5.18
2022-12-18T04:59:30.162Z,-5.24
2022-12-18T05:02:00.367Z,-5.25
2022-12-18T05:04:29.928Z,-5.14
2022-12-18T05:06:58.340Z,-5.19
2022-12-18T05:09:26.423Z,-5.21
2022-12-18T05:11:54.981Z,-5.17
2022-12-18T05:14:23.033Z,-5.25
2022-12-18T05:16:51.485Z,-5.31
2022-12-18T05:19:19.846Z,-5.20
2022-12-18T05:21:49.337Z,-5.19
2022-12-18T05:24:17.567Z,-5.26
2022-12-18T05:26:45.631Z,-5.28
2022-12-18T05:29:14.212Z,-5.27
2022-12-18T05:31:42.982Z,-5.31
2022-12-18T05:34:12.046Z,-5.21
2022-12-18T05:36:40.942Z,-5.26
2022-12-18T05:39:10.483Z,-5.31
2022-12-18T05:41:38.496Z,-5.15
2022-12-18T05:44:06.999Z,-5.19
2022-12-18T05:46:35.149Z,-5.25
2022-12-18T05:49:04.020Z,-5.00
2022-12-18T05:51:32.436Z,-5.02
2022-12-18T05:54:00.460Z,-5.16
2022-12-18T05:56:30.040Z,-5.22
2022-12-18T05:58:58.215Z,-5.19
2022-12-18T06:01:28.381Z,-5.04
2022-12-18T06:03:57.291Z,-5.29
2022-12-18T06:06:27.111Z,-5.26
2022-12-18T06:08:56.043Z,-5.14
2022-12-18T06:11:25.825Z,-5.08
2022-12-18T06:13:59.018Z,-5.08
2022-12-18T06:16:27.860Z,-5.14
2022-12-18T06:18:58.156Z,-5.05
2022-12-18T06:21:26.225Z,-5.15
2022-12-18T06:23:54.311Z,-5.13
2022-12-18T06:26:27.843Z,-5.18
2022-12-18T06:28:58.083Z,-5.32
2022-12-18T06:31:27.261Z,-5.22
2022-12-18T06:33:55.388Z,-5.12
2022-12-18T06:36:23.663Z,-5.17
2022-12-18T06:38:51.719Z,-5.24
2022-12-18T06:41:22.631Z,-5.27
2022-12-18T06:43:50.659Z,-5.33
2022-12-18T06:46:20.326Z,-5.36
2022-12-18T06:48:51.874Z,-5.33
2022-12-18T06:51:21.758Z,-5.41
2022-12-18T06:53:49.887Z,-5.37
2022-12-18T06:56:18.194Z,-5.21
2022-12-18T06:58:48.578Z,-5.39
2022-12-18T07:01:18.156Z,-5.33
2022-12-18T07:03:48.824Z,-5.38
2022-12-18T07:06:18.602Z,-5.40
2022-12-18T07:08:47.484Z,-5.37
2022-12-18T07:11:15.928Z,-5.43
2022-12-18T07:13:44.029Z,-5.44
2022-12-18T07:16:20.851Z,-5.21
2022-12-18T07:18:53.626Z,-5.35
2022-12-18T07:21:22.181Z,-5.34
2022-12-18T07:23:50.405Z,-5.46
2022-12-18T07:26:20.796Z,-5.37
2022-12-18T07:28:49.296Z,-5.48
2022-12-18T07:31:19.555Z,-5.34
2022-12-18T07:33:50.682Z,-5.30
2022-12-18T07:36:21.027Z,-5.31
2022-12-18T07:38:49.927Z,-5.19
2022-12-18T07:41:19.794Z,-5.16
2022-12-18T07:43:48.755Z,-5.01
2022-12-18T07:46:17.737Z,-5.26
2022-12-18T07:48:49.470Z,-5.30
2022-12-18T07:51:20.381Z,-5.31
2022-12-18T07:53:52.013Z,-5.25
2022-12-18T07:56:30.025Z,-5.19
2022-12-18T07:58:59.879Z,-5.09
2022-12-18T08:01:28.177Z,-5.24
2022-12-18T08:03:56.691Z,-5.23
2022-12-18T08:06:26.262Z,-5.33
2022-12-18T08:08:55.496Z,-141.31
2022-12-18T08:11:25.115Z,-141.31
2022-12-18T08:13:53.449Z,-141.31
2022-12-18T08:16:22.346Z,-141.31
2022-12-18T08:18:50.771Z,-141.31
2022-12-18T08:21:23.846Z,-141.31
2022-12-18T08:23:54.831Z,-141.31
2022-12-18T08:26:23.988Z,-141.31
2022-12-18T08:28:53.123Z,-141.31
2022-12-18T08:31:22.059Z,-141.31
2022-12-18T08:33:52.438Z,-141.31
2022-12-18T08:36:20.556Z,-141.31
2022-12-18T08:38:49.263Z,-141.31
2022-12-18T08:41:19.484Z,-141.31
2022-12-18T08:44:04.951Z,-141.31
2022-12-18T08:46:37.932Z,-141.31
2022-12-18T08:49:06.755Z,-141.31
2022-12-18T08:51:35.418Z,-141.31
2022-12-18T08:54:04.635Z,-141.31
2022-12-18T08:56:36.128Z,-141.31
2022-12-18T08:59:05.302Z,-141.31
2022-12-18T09:01:33.750Z,-141.31
2022-12-18T09:04:02.669Z,-141.31
2022-12-18T09:06:30.731Z,-141.31
2022-12-18T09:08:59.427Z,-141.31
2022-12-18T09:11:29.517Z,-141.31
2022-12-18T09:14:00.423Z,-141.31
2022-12-18T09:16:32.561Z,-141.31
2022-12-18T09:19:02.004Z,-141.31
2022-12-18T09:21:33.486Z,-141.31
2022-12-18T09:24:08.813Z,-141.31
2022-12-18T09:26:37.888Z,-141.31
2022-12-18T09:29:09.191Z,-141.31
2022-12-18T09:31:38.762Z,-141.31
2022-12-18T09:34:08.629Z,-141.31
2022-12-18T09:36:36.804Z,-141.31
2022-12-18T09:39:08.578Z,-141.31
2022-12-18T09:41:48.958Z,-141.31
2022-12-18T09:44:24.861Z,-141.31
2022-12-18T09:46:59.376Z,-141.31
2022-12-18T09:49:32.127Z,-141.31
2022-12-18T09:52:06.563Z,-141.31
2022-12-18T09:54:37.820Z,-141.31
2022-12-18T09:57:06.533Z,-141.31
2022-12-18T09:59:40.698Z,-141.31
2022-12-18T10:02:20.175Z,-141.31
2022-12-18T10:05:01.753Z,-141.31
2022-12-18T10:07:40.563Z,-141.31
2022-12-18T10:10:18.541Z,-141.31
2022-12-18T10:13:04.038Z,-141.31
2022-12-18T10:15:42.119Z,-141.31
2022-12-18T10:18:26.219Z,-141.31
2022-12-18T10:20:59.044Z,-141.31
2022-12-18T10:23:34.578Z,-141.31
2022-12-18T10:26:06.739Z,-141.31
2022-12-18T10:28:38.468Z,-141.31
2022-12-18T10:31:14.873Z,-141.31
2022-12-18T10:33:42.973Z,-141.31
2022-12-18T10:36:11.239Z,-141.31
2022-12-18T10:38:40.091Z,-141.31
2022-12-18T10:41:27.419Z,-141.31
2022-12-18T10:44:13.536Z,-141.31
2022-12-18T10:46:43.636Z,-141.31
2022-12-18T10:49:23.408Z,-141.31
2022-12-18T10:51:52.993Z,-141.31
2022-12-18T10:54:24.996Z,-141.31
2022-12-18T10:56:53.109Z,-141.31
2022-12-18T10:59:21.627Z,-141.31
2022-12-18T11:01:57.389Z,-141.31
2022-12-18T11:04:27.689Z,-141.31
2022-12-18T11:07:02.093Z,-141.31
2022-12-18T11:09:30.717Z,-141.31
2022-12-18T11:12:01.371Z,-141.31
2022-12-18T11:14:31.437Z,-141.31
2022-12-18T11:17:25.422Z,-141.31
2022-12-18T11:19:55.296Z,-141.31
2022-12-18T11:22:27.596Z,-141.31
2022-12-18T11:27:54.613Z,-141.31
2022-12-18T11:30:25.260Z,-141.31
2022-12-18T11:32:58.905Z,-141.31
2022-12-18T11:35:38.269Z,-141.31
2022-12-18T11:38:13.181Z,-141.31
2022-12-18T11:40:46.199Z,-141.31
2022-12-18T11:43:19.055Z,-141.31
2022-12-18T11:45:53.166Z,-141.31
2022-12-18T11:48:27.955Z,-141.31
2022-12-18T11:50:58.759Z,-141.31
2022-12-18T11:53:28.229Z,-141.31
2022-12-18T11:56:07.031Z,-141.31
2022-12-18T11:58:45.777Z,-141.31
2022-12-18T12:01:26.473Z,-141.31
2022-12-18T12:04:29.635Z,-141.31
2022-12-18T12:07:06.861Z,-141.31
2022-12-18T12:09:43.229Z,-141.31
2022-12-18T12:12:26.686Z,-141.31
2022-12-18T12:15:04.182Z,-141.31
2022-12-18T12:17:39.568Z,-141.31
2022-12-18T12:20:19.760Z,-141.31
2022-12-18T12:22:57.221Z,-141.31
2022-12-18T12:25:35.571Z,-141.31
2022-12-18T12:28:17.935Z,-141.31
2022-12-18T12:30:57.901Z,-141.31
2022-12-18T12:33:39.333Z,-141.31
2022-12-18T12:36:20.976Z,-141.31
2022-12-18T12:38:53.963Z,-141.31
2022-12-18T12:41:43.964Z,-141.31
2022-12-18T12:44:21.329Z,-141.31
2022-12-18T12:46:53.096Z,-141.31
2022-12-18T12:49:27.896Z,-141.31
2022-12-18T12:52:05.567Z,-141.31
2022-12-18T12:54:37.208Z,-141.31
2022-12-18T12:57:11.893Z,-141.31
2022-12-18T12:59:54.106Z,-141.31
2022-12-18T13:02:28.925Z,-141.31
2022-12-18T13:05:03.263Z,-141.31
2022-12-18T13:07:34.730Z,-141.31
2022-12-18T13:10:26.879Z,-141.31
2022-12-18T13:12:59.478Z,-141.31
2022-12-18T13:15:32.838Z,-141.31
2022-12-18T13:18:20.177Z,-141.31
2022-12-18T13:20:55.139Z,-141.31
2022-12-18T13:23:37.491Z,-141.31
2022-12-18T13:26:36.889Z,-141.31
2022-12-18T13:29:07.113Z,-141.31
2022-12-18T13:32:02.413Z,-141.31
2022-12-18T13:34:32.751Z,-141.31
2022-12-18T13:37:35.229Z,-141.31
2022-12-18T13:40:39.429Z,-141.31
2022-12-18T13:43:23.182Z,-141.31
2022-12-18T13:46:00.720Z,-141.31
2022-12-18T13:48:31.257Z,-141.31
2022-12-18T13:51:04.391Z,-141.31
2022-12-18T13:53:36.929Z,-141.31
2022-12-18T13:56:07.814Z,-141.31
2022-12-18T13:58:35.895Z,-141.31
2022-12-18T14:01:05.741Z,-141.31
2022-12-18T14:03:33.992Z,-141.31
2022-12-18T14:06:06.604Z,-141.31
2022-12-18T14:08:39.945Z,-141.31
2022-12-18T14:11:22.302Z,-141.31
2022-12-18T14:13:51.473Z,-141.31
2022-12-18T14:16:20.287Z,-141.31
2022-12-18T14:18:55.503Z,-141.31
2022-12-18T14:21:30.361Z,-141.31
2022-12-18T14:24:19.560Z,-141.31
2022-12-18T14:26:50.801Z,-141.31
2022-12-18T14:29:25.804Z,-141.31
2022-12-18T14:32:16.880Z,-141.31
2022-12-18T14:34:46.033Z,-141.31
2022-12-18T14:37:16.760Z,-141.31
2022-12-18T14:39:55.736Z,-141.31
2022-12-18T14:42:29.112Z,-141.31
2022-12-18T14:45:42.126Z,-141.31
2022-12-18T14:48:16.321Z,-141.31
2022-12-18T14:51:02.053Z,-141.31
2022-12-18T14:53:54.439Z,-141.31
2022-12-18T14:56:24.703Z,-141.31
2022-12-18T14:58:57.516Z,-141.31
2022-12-18T15:01:29.316Z,-141.31
2022-12-18T15:03:58.913Z,-141.31
2022-12-18T15:06:33.320Z,-141.31
2022-12-18T15:09:01.498Z,-141.31
2022-12-18T15:11:47.760Z,-141.31
2022-12-18T15:14:40.798Z,-141.31
2022-12-18T15:17:19.004Z,-141.31
2022-12-18T15:19:49.012Z,-141.31
2022-12-18T15:22:22.248Z,-141.31
2022-12-18T15:24:52.426Z,-141.31
2022-12-18T15:27:24.101Z,-141.31
2022-12-18T15:30:13.739Z,-141.31
2022-12-18T15:32:42.671Z,-141.31
2022-12-18T15:35:16.638Z,-141.31
2022-12-18T15:37:45.533Z,-141.31
2022-12-18T15:40:17.911Z,-141.31
2022-12-18T15:43:04.943Z,-141.31
2022-12-18T15:45:34.439Z,-141.31
2022-12-18T15:48:10.895Z,-141.31
2022-12-18T15:50:39.038Z,-141.31
2022-12-18T15:53:07.156Z,-141.31
2022-12-18T15:55:56.557Z,-141.31
2022-12-18T15:58:28.921Z,-141.31
2022-12-18T16:01:01.366Z,-141.31
2022-12-18T16:03:29.529Z,-141.31
2022-12-18T16:05:59.313Z,-141.31
2022-12-18T16:08:28.152Z,-141.31
2022-12-18T16:10:57.010Z,-141.31
2022-12-18T16:13:25.298Z,-141.31
2022-12-18T16:15:53.400Z,-141.31
2022-12-18T16:18:23.296Z,-141.31
2022-12-18T16:20:51.584Z,-141.31
2022-12-18T16:23:19.726Z,-141.31
2022-12-18T16:25:48.635Z,-141.31
2022-12-18T16:28:16.759Z,-141.31
2022-12-18T16:30:45.844Z,-141.31
2022-12-18T16:33:14.155Z,-141.31
2022-12-18T16:35:43.811Z,-141.31
2022-12-18T16:38:12.341Z,-141.31
2022-12-18T16:41:02.936Z,-141.31
2022-12-18T16:43:31.018Z,-141.31
2022-12-18T16:46:01.175Z,-141.31
2022-12-18T16:48:29.314Z,-141.31
2022-12-18T16:51:03.694Z,-141.31
2022-12-18T16:53:33.614Z,-141.31
2022-12-18T16:56:03.579Z,-141.31
2022-12-18T16:58:33.079Z,-141.31
2022-12-18T17:01:01.217Z,-141.31
2022-12-18T17:03:29.370Z,-141.31
2022-12-18T17:06:05.613Z,-141.31
2022-12-18T17:08:33.967Z,-141.31
2022-12-18T17:11:05.854Z,-141.31
2022-12-18T17:13:34.096Z,-141.31
2022-12-18T17:16:06.630Z,-141.31
2022-12-18T17:18:36.474Z,-141.31
2022-12-18T17:21:09.487Z,-141.31
2022-12-18T17:23:38.713Z,-141.31
2022-12-18T17:26:08.371Z,-141.31
2022-12-18T17:28:37.505Z,-141.31
2022-12-18T17:31:12.803Z,-141.31
2022-12-18T17:33:42.075Z,-141.31
2022-12-18T17:36:12.582Z,-141.31
2022-12-18T17:38:41.454Z,-141.31
2022-12-18T17:41:11.523Z,-141.31
2022-12-18T17:43:45.615Z,-141.31
2022-12-18T17:46:15.400Z,-141.31
2022-12-18T17:48:43.824Z,-141.31
2022-12-18T17:51:14.062Z,-141.31
2022-12-18T17:53:42.659Z,-141.31
2022-12-18T17:56:14.107Z,-141.31
2022-12-18T17:58:43.182Z,-141.31
2022-12-18T18:01:15.133Z,-141.31
2022-12-18T18:03:45.478Z,-141.31
2022-12-18T18:06:18.144Z,-141.31
2022-12-18T18:08:46.489Z,-141.31
2022-12-18T18:11:34.808Z,-141.31
2022-12-18T18:14:05.235Z,-141.31
2022-12-18T18:16:37.214Z,-141.31
2022-12-18T18:19:08.077Z,-141.31
2022-12-18T18:21:40.442Z,-141.31
2022-12-18T18:24:10.945Z,-141.31
2022-12-18T18:26:39.849Z,-141.31
2022-12-18T18:29:11.938Z,-141.31
2022-12-18T18:31:40.913Z,-141.31
2022-12-18T18:34:15.949Z,-141.31
2022-12-18T18:36:46.587Z,-141.31
2022-12-18T18:39:15.886Z,-141.31
2022-12-18T18:41:47.194Z,-141.31
2022-12-18T18:44:17.005Z,-141.31
2022-12-18T18:46:45.642Z,-141.31
2022-12-18T18:49:14.249Z,-141.31
2022-12-18T18:51:42.551Z,-141.31
2022-12-18T18:54:12.337Z,-141.31
2022-12-18T18:57:11.995Z,-141.31
2022-12-18T18:59:32.065Z,-141.31
2022-12-18T19:02:04.762Z,-141.31
2022-12-18T19:04:45.648Z,-141.31
2022-12-18T19:07:18.476Z,-141.31
2022-12-18T19:10:04.808Z,-141.31
2022-12-18T19:12:53.740Z,-141.31
2022-12-18T19:15:26.539Z,-141.31
2022-12-18T19:17:54.988Z,-141.31
2022-12-18T19:20:23.193Z,-141.31
2022-12-18T19:22:55.596Z,-141.31
2022-12-18T19:25:38.576Z,-141.31
2022-12-18T19:28:21.491Z,-141.31
2022-12-18T19:30:57.610Z,-141.31
2022-12-18T19:33:44.312Z,-141.31
2022-12-18T19:36:15.525Z,-141.31
2022-12-18T19:38:45.439Z,-141.31
2022-12-18T19:41:15.821Z,-141.31
2022-12-18T19:43:45.498Z,-141.31
2022-12-18T19:46:16.195Z,-141.31
2022-12-18T19:48:45.422Z,-141.31
2022-12-18T19:51:16.349Z,-141.31
2022-12-18T19:53:44.732Z,-141.31
2022-12-18T19:56:16.746Z,-141.31
2022-12-18T19:58:47.004Z,-141.31
2022-12-18T20:01:17.104Z,-141.31
2022-12-18T20:03:51.608Z,-141.31
2022-12-18T20:06:26.637Z,-141.31
2022-12-18T20:08:59.590Z,-141.31
2022-12-18T20:11:31.043Z,-141.31
2022-12-18T20:13:59.791Z,-141.31
2022-12-18T20:16:28.009Z,-141.31
2022-12-18T20:18:59.631Z,-141.31
2022-12-18T20:21:28.501Z,-141.31
2022-12-18T20:23:57.260Z,-141.31
2022-12-18T20:26:25.848Z,-141.31
2022-12-18T20:28:56.179Z,-141.31
2022-12-18T20:31:25.126Z,-141.31
2022-12-18T20:33:55.652Z,-141.31
2022-12-18T20:36:28.291Z,-141.31
2022-12-18T20:39:00.638Z,-141.31
2022-12-18T20:41:38.135Z,-141.31
2022-12-18T20:44:21.600Z,-141.31
2022-12-18T20:46:55.612Z,-141.31
2022-12-18T20:49:25.513Z,-141.31
2022-12-18T20:51:54.873Z,-141.31
2022-12-18T20:54:25.705Z,-141.31
2022-12-18T20:56:57.896Z,-141.31
2022-12-18T20:59:27.399Z,-141.31
2022-12-18T21:01:55.838Z,-141.31
2022-12-18T21:04:24.652Z,-141.31
2022-12-18T21:07:00.493Z,-141.31
2022-12-18T21:09:38.203Z,-141.31
2022-12-18T21:12:25.815Z,-141.31
2022-12-18T21:14:55.392Z,-141.31
2022-12-18T21:17:23.929Z,-141.31
2022-12-18T21:19:54.797Z,-141.31
2022-12-18T21:22:23.364Z,-141.31
2022-12-18T21:24:52.656Z,-141.31
2022-12-18T21:27:21.221Z,-141.31
2022-12-18T21:29:49.528Z,-141.31
2022-12-18T21:32:23.704Z,-141.31
2022-12-18T21:34:53.755Z,-141.31
2022-12-18T21:37:21.937Z,-141.31
2022-12-18T21:39:51.131Z,-141.31
2022-12-18T21:42:36.734Z,-141.31
2022-12-18T21:45:05.504Z,-141.31
2022-12-18T21:47:36.095Z,-141.31
2022-12-18T21:50:05.100Z,-141.31
2022-12-18T21:52:33.281Z,-141.31
2022-12-18T21:55:08.466Z,-141.31
2022-12-18T21:57:38.331Z,-141.31
2022-12-18T22:00:08.882Z,-141.31
2022-12-18T22:02:44.333Z,-141.31
2022-12-18T22:05:12.659Z,-141.31
2022-12-18T22:07:41.401Z,-141.31
2022-12-18T22:10:10.281Z,-141.31
2022-12-18T22:12:43.112Z,-141.31
2022-12-18T22:15:21.501Z,-141.31
2022-12-18T22:17:52.692Z,-141.31
2022-12-18T22:20:26.328Z,-141.31
2022-12-18T22:22:54.948Z,-141.31
2022-12-18T22:25:24.002Z,-141.31
2022-12-18T22:28:06.798Z,-141.31
2022-12-18T22:30:35.316Z,-141.31
2022-12-18T22:33:05.303Z,-141.31
2022-12-18T22:35:33.381Z,-141.31
2022-12-18T22:38:02.774Z,-141.31
2022-12-18T22:40:31.248Z,-141.31
2022-12-18T22:42:59.607Z,-141.31
2022-12-18T22:45:28.998Z,-141.31
2022-12-18T22:47:57.644Z,-141.31
2022-12-18T22:50:27.217Z,-141.31
2022-12-18T22:52:55.487Z,-141.31
2022-12-18T22:55:23.680Z,-141.31
2022-12-18T22:57:51.775Z,-141.31
2022-12-18T23:00:24.291Z,-141.31
2022-12-18T23:02:59.984Z,-141.31
2022-12-18T23:05:31.859Z,-141.31
2022-12-18T23:08:00.691Z,-141.31
2022-12-18T23:10:29.041Z,-141.31
2022-12-18T23:12:57.309Z,-141.31
2022-12-18T23:15:27.920Z,-141.31
2022-12-18T23:17:58.707Z,-141.31
2022-12-18T23:20:27.957Z,-141.31
2022-12-18T23:22:57.422Z,-141.31
2022-12-18T23:25:25.441Z,-141.31
2022-12-18T23:27:53.499Z,-141.31
2022-12-18T23:30:22.116Z,-141.31
2022-12-18T23:32:50.268Z,-141.31
2022-12-18T23:35:18.812Z,-141.31
2022-12-18T23:38:03.672Z,-141.31
2022-12-18T23:40:33.158Z,-141.31
2022-12-18T23:43:01.285Z,-141.31
2022-12-18T23:45:29.408Z,-141.31
2022-12-18T23:47:57.841Z,-141.31
2022-12-18T23:50:29.287Z,-141.31
2022-12-18T23:53:04.710Z,-141.31
2022-12-18T23:55:35.716Z,-141.31
2022-12-18T23:58:05.515Z,-141.31
